createdAt,value
2019-03-22T00:00:46.538Z,7.90
2019-03-22T00:01:51.928Z,7.90
2019-03-22T00:02:57.443Z,7.90
2019-03-22T00:04:02.799Z,7.90
2019-03-22T00:05:09.522Z,7.90
2019-03-22T00:06:14.857Z,7.90
2019-03-22T00:07:20.317Z,7.80
2019-03-22T00:08:25.751Z,7.90
2019-03-22T00:09:31.273Z,7.90
2019-03-22T00:10:36.726Z,7.80
2019-03-22T00:11:42.084Z,7.80
2019-03-22T00:12:47.560Z,7.80
2019-03-22T00:13:53.067Z,7.80
2019-03-22T00:14:58.433Z,7.70
2019-03-22T00:16:03.923Z,7.80
2019-03-22T00:17:09.434Z,7.70
2019-03-22T00:18:14.830Z,7.70
2019-03-22T00:19:20.208Z,7.70
2019-03-22T00:20:25.680Z,7.70
2019-03-22T00:21:31.215Z,7.70
2019-03-22T00:22:36.651Z,7.60
2019-03-22T00:23:42.006Z,7.60
2019-03-22T00:24:47.360Z,7.60
2019-03-22T00:25:52.741Z,7.60
2019-03-22T00:26:58.261Z,7.60
2019-03-22T00:28:03.621Z,7.60
2019-03-22T00:29:09.211Z,7.50
2019-03-22T00:30:14.619Z,7.60
2019-03-22T00:31:20.139Z,7.50
2019-03-22T00:32:25.715Z,7.60
2019-03-22T00:33:32.676Z,7.50
2019-03-22T00:34:38.335Z,7.50
2019-03-22T00:35:43.736Z,7.50
2019-03-22T00:36:49.141Z,7.50
2019-03-22T00:37:54.571Z,7.40
2019-03-22T00:39:00.046Z,7.40
2019-03-22T00:40:05.588Z,7.50
2019-03-22T00:41:10.933Z,7.50
2019-03-22T00:42:16.501Z,7.50
2019-03-22T00:43:21.992Z,7.50
2019-03-22T00:44:27.375Z,7.50
2019-03-22T00:45:35.813Z,7.50
2019-03-22T00:46:41.144Z,7.50
2019-03-22T00:47:46.600Z,7.50
2019-03-22T00:48:52.035Z,7.50
2019-03-22T00:49:57.458Z,7.50
2019-03-22T00:51:02.765Z,7.40
2019-03-22T00:52:08.276Z,7.50
2019-03-22T00:53:13.968Z,7.40
2019-03-22T00:54:19.460Z,7.40
2019-03-22T00:55:24.907Z,7.40
2019-03-22T00:56:30.288Z,7.40
2019-03-22T00:57:38.442Z,7.40
2019-03-22T00:58:43.897Z,7.50
2019-03-22T00:59:49.431Z,7.40
2019-03-22T01:00:54.966Z,7.40
2019-03-22T01:02:00.420Z,7.40
2019-03-22T01:03:05.825Z,7.40
2019-03-22T01:04:11.180Z,7.40
2019-03-22T01:05:17.811Z,7.40
2019-03-22T01:06:23.222Z,7.40
2019-03-22T01:07:28.701Z,7.40
2019-03-22T01:08:34.164Z,7.40
2019-03-22T01:09:39.696Z,7.40
2019-03-22T01:10:45.172Z,7.50
2019-03-22T01:11:50.512Z,7.40
2019-03-22T01:12:56.112Z,7.50
2019-03-22T01:14:01.628Z,7.40
2019-03-22T01:15:07.968Z,7.40
2019-03-22T01:16:13.496Z,7.40
2019-03-22T01:17:18.876Z,7.40
2019-03-22T01:18:24.181Z,7.40
2019-03-22T01:19:29.765Z,7.40
2019-03-22T01:20:35.269Z,7.40
2019-03-22T01:21:40.680Z,7.40
2019-03-22T01:22:46.124Z,7.40
2019-03-22T01:23:51.617Z,7.50
2019-03-22T01:24:57.156Z,7.50
2019-03-22T01:26:02.561Z,7.50
2019-03-22T01:27:08.060Z,7.50
2019-03-22T01:28:13.604Z,7.50
2019-03-22T01:29:19.217Z,7.50
2019-03-22T01:30:24.557Z,7.50
2019-03-22T01:31:30.008Z,7.50
2019-03-22T01:32:35.764Z,7.50
2019-03-22T01:34:00.069Z,7.50
2019-03-22T01:35:05.789Z,7.50
2019-03-22T01:36:11.292Z,7.50
2019-03-22T01:37:16.686Z,7.50
2019-03-22T01:38:22.096Z,7.40
2019-03-22T01:39:27.637Z,7.50
2019-03-22T01:40:32.998Z,7.50
2019-03-22T01:41:38.526Z,7.50
2019-03-22T01:42:44.168Z,7.50
2019-03-22T01:43:49.616Z,7.40
2019-03-22T01:44:55.152Z,7.40
2019-03-22T01:46:00.629Z,7.40
2019-03-22T01:47:06.252Z,7.40
2019-03-22T01:48:11.717Z,7.50
2019-03-22T01:49:17.037Z,7.50
2019-03-22T01:50:22.466Z,7.50
2019-03-22T01:51:27.941Z,7.40
2019-03-22T01:52:33.318Z,7.40
2019-03-22T01:53:38.643Z,7.50
2019-03-22T01:54:44.072Z,7.40
2019-03-22T01:55:49.513Z,7.40
2019-03-22T01:56:54.916Z,7.40
2019-03-22T01:58:00.283Z,7.40
2019-03-22T01:59:05.810Z,7.50
2019-03-22T02:00:12.491Z,7.50
2019-03-22T02:01:17.972Z,7.50
2019-03-22T02:02:23.324Z,7.50
2019-03-22T02:03:28.836Z,7.40
2019-03-22T02:04:34.308Z,7.40
2019-03-22T02:05:39.770Z,7.50
2019-03-22T02:06:45.068Z,7.50
2019-03-22T02:07:50.551Z,7.50
2019-03-22T02:08:56.007Z,7.50
2019-03-22T02:10:01.451Z,7.50
2019-03-22T02:11:07.008Z,7.50
2019-03-22T02:12:12.344Z,7.50
2019-03-22T02:13:17.703Z,7.50
2019-03-22T02:14:23.269Z,7.50
2019-03-22T02:15:28.720Z,7.50
2019-03-22T02:16:34.067Z,7.60
2019-03-22T02:17:39.400Z,7.60
2019-03-22T02:18:44.860Z,7.60
2019-03-22T02:19:50.272Z,7.60
2019-03-22T02:20:55.709Z,7.60
2019-03-22T02:22:01.197Z,7.50
2019-03-22T02:23:06.552Z,7.50
2019-03-22T02:24:12.008Z,7.60
2019-03-22T02:25:17.637Z,7.50
2019-03-22T02:26:22.988Z,7.50
2019-03-22T02:27:28.417Z,7.50
2019-03-22T02:28:33.875Z,7.50
2019-03-22T02:29:39.286Z,7.50
2019-03-22T02:30:44.684Z,7.50
2019-03-22T02:31:50.042Z,7.60
2019-03-22T02:32:55.479Z,7.50
2019-03-22T02:34:01.044Z,7.50
2019-03-22T02:35:07.211Z,7.50
2019-03-22T02:36:12.825Z,7.50
2019-03-22T02:37:18.338Z,7.60
2019-03-22T02:38:23.686Z,7.50
2019-03-22T02:39:29.315Z,7.60
2019-03-22T02:40:34.994Z,7.50
2019-03-22T02:41:40.544Z,7.60
2019-03-22T02:42:46.084Z,7.50
2019-03-22T02:43:54.538Z,7.50
2019-03-22T02:44:58.918Z,7.50
2019-03-22T02:46:04.456Z,7.50
2019-03-22T02:47:10.080Z,7.60
2019-03-22T02:48:16.907Z,7.50
2019-03-22T02:49:22.505Z,7.50
2019-03-22T02:50:27.975Z,7.50
2019-03-22T02:51:33.454Z,7.50
2019-03-22T02:52:38.978Z,7.50
2019-03-22T02:53:44.400Z,7.50
2019-03-22T02:54:49.724Z,7.50
2019-03-22T02:55:55.282Z,7.50
2019-03-22T02:57:00.749Z,7.40
2019-03-22T02:58:19.681Z,7.50
2019-03-22T02:59:13.262Z,7.40
2019-03-22T03:00:19.018Z,7.40
2019-03-22T03:01:24.792Z,7.40
2019-03-22T03:02:30.292Z,7.40
2019-03-22T03:03:35.740Z,7.40
2019-03-22T03:04:41.200Z,7.40
2019-03-22T03:05:46.737Z,7.40
2019-03-22T03:06:52.397Z,7.40
2019-03-22T03:07:57.897Z,7.40
2019-03-22T03:09:04.281Z,7.40
2019-03-22T03:10:11.007Z,7.40
2019-03-22T03:11:16.573Z,7.40
2019-03-22T03:12:22.089Z,7.40
2019-03-22T03:13:27.568Z,7.50
2019-03-22T03:14:33.088Z,7.50
2019-03-22T03:15:38.645Z,7.40
2019-03-22T03:16:44.176Z,7.50
2019-03-22T03:17:49.558Z,7.50
2019-03-22T03:18:54.989Z,7.40
2019-03-22T03:20:00.454Z,7.40
2019-03-22T03:21:06.054Z,7.40
2019-03-22T03:22:11.524Z,7.40
2019-03-22T03:23:16.989Z,7.40
2019-03-22T03:24:22.537Z,7.40
2019-03-22T03:25:28.107Z,7.50
2019-03-22T03:26:33.785Z,7.50
2019-03-22T03:27:39.261Z,7.40
2019-03-22T03:28:44.933Z,7.40
2019-03-22T03:29:50.498Z,7.50
2019-03-22T03:30:55.909Z,7.40
2019-03-22T03:32:01.635Z,7.40
2019-03-22T03:33:07.192Z,7.40
2019-03-22T03:34:12.605Z,7.40
2019-03-22T03:35:18.349Z,7.40
2019-03-22T03:36:24.063Z,7.40
2019-03-22T03:37:29.495Z,7.50
2019-03-22T03:38:34.849Z,7.40
2019-03-22T03:39:40.380Z,7.40
2019-03-22T03:40:45.837Z,7.40
2019-03-22T03:41:51.429Z,7.40
2019-03-22T03:42:57.158Z,7.50
2019-03-22T03:44:02.689Z,7.40
2019-03-22T03:45:10.704Z,7.40
2019-03-22T03:46:16.106Z,7.40
2019-03-22T03:47:21.506Z,7.40
2019-03-22T03:48:27.050Z,7.40
2019-03-22T03:49:32.577Z,7.40
2019-03-22T03:50:38.266Z,7.40
2019-03-22T03:51:43.792Z,7.40
2019-03-22T03:52:49.186Z,7.40
2019-03-22T03:53:54.782Z,7.40
2019-03-22T03:55:00.536Z,7.40
2019-03-22T03:56:06.279Z,7.40
2019-03-22T03:57:11.749Z,7.40
2019-03-22T03:58:17.309Z,7.40
2019-03-22T03:59:22.801Z,7.40
2019-03-22T04:00:28.465Z,7.40
2019-03-22T04:01:34.041Z,7.30
2019-03-22T04:02:39.599Z,7.30
2019-03-22T04:03:45.006Z,7.30
2019-03-22T04:04:50.433Z,7.30
2019-03-22T04:05:55.873Z,7.30
2019-03-22T04:07:01.398Z,7.30
2019-03-22T04:08:07.105Z,7.30
2019-03-22T04:09:12.432Z,7.30
2019-03-22T04:10:17.986Z,7.30
2019-03-22T04:11:23.428Z,7.30
2019-03-22T04:12:28.803Z,7.30
2019-03-22T04:13:34.217Z,7.30
2019-03-22T04:14:39.851Z,7.30
2019-03-22T04:15:45.619Z,7.30
2019-03-22T04:16:51.045Z,7.30
2019-03-22T04:17:56.482Z,7.30
2019-03-22T04:19:02.031Z,7.30
2019-03-22T04:20:07.511Z,7.30
2019-03-22T04:21:12.945Z,7.30
2019-03-22T04:22:18.433Z,7.30
2019-03-22T04:23:23.901Z,7.30
2019-03-22T04:24:29.333Z,7.30
2019-03-22T04:25:34.875Z,7.30
2019-03-22T04:26:40.489Z,7.30
2019-03-22T04:27:46.132Z,7.30
2019-03-22T04:29:06.882Z,7.30
2019-03-22T04:29:59.900Z,7.30
2019-03-22T04:31:05.282Z,7.30
2019-03-22T04:32:10.933Z,7.30
2019-03-22T04:33:16.344Z,7.20
2019-03-22T04:34:21.821Z,7.20
2019-03-22T04:35:27.289Z,7.30
2019-03-22T04:36:32.875Z,7.30
2019-03-22T04:37:38.845Z,7.30
2019-03-22T04:38:44.328Z,7.30
2019-03-22T04:39:49.886Z,7.20
2019-03-22T04:40:55.325Z,7.20
2019-03-22T04:42:00.824Z,7.20
2019-03-22T04:43:06.336Z,7.30
2019-03-22T04:44:12.052Z,7.20
2019-03-22T04:45:17.956Z,7.20
2019-03-22T04:46:24.963Z,7.20
2019-03-22T04:47:30.992Z,7.20
2019-03-22T04:48:38.143Z,7.20
2019-03-22T04:49:44.904Z,7.20
2019-03-22T04:50:52.080Z,7.20
2019-03-22T04:51:57.786Z,7.20
2019-03-22T04:53:03.917Z,7.20
2019-03-22T04:54:10.344Z,7.20
2019-03-22T04:55:16.630Z,7.20
2019-03-22T04:56:24.737Z,7.20
2019-03-22T04:57:30.875Z,7.20
2019-03-22T04:58:38.297Z,7.20
2019-03-22T04:59:45.571Z,7.20
2019-03-22T05:00:53.796Z,7.20
2019-03-22T05:02:02.518Z,7.20
2019-03-22T05:03:09.231Z,7.30
2019-03-22T05:04:15.584Z,7.20
2019-03-22T05:05:21.873Z,7.20
2019-03-22T05:06:27.964Z,7.20
2019-03-22T05:07:33.823Z,7.20
2019-03-22T05:08:41.402Z,7.20
2019-03-22T05:09:47.610Z,7.30
2019-03-22T05:10:54.956Z,7.20
2019-03-22T05:12:03.925Z,7.30
2019-03-22T05:13:12.633Z,7.30
2019-03-22T05:14:20.378Z,7.30
2019-03-22T05:15:26.105Z,7.30
2019-03-22T05:16:33.929Z,7.20
2019-03-22T05:17:39.505Z,7.20
2019-03-22T05:18:48.606Z,7.20
2019-03-22T05:19:56.999Z,7.20
2019-03-22T05:21:03.757Z,7.30
2019-03-22T05:22:11.969Z,7.30
2019-03-22T05:23:20.158Z,7.30
2019-03-22T05:24:28.529Z,7.30
2019-03-22T05:25:35.580Z,7.30
2019-03-22T05:26:42.416Z,7.30
2019-03-22T05:27:50.575Z,7.30
2019-03-22T05:28:56.298Z,7.30
2019-03-22T05:30:03.568Z,7.30
2019-03-22T05:32:13.645Z,7.30
2019-03-22T05:33:19.097Z,7.30
2019-03-22T05:34:24.466Z,7.40
2019-03-22T05:35:30.059Z,7.40
2019-03-22T05:36:35.651Z,7.30
2019-03-22T05:37:41.156Z,7.30
2019-03-22T05:38:46.844Z,7.30
2019-03-22T05:39:52.463Z,7.30
2019-03-22T05:40:57.946Z,7.30
2019-03-22T05:42:03.331Z,7.30
2019-03-22T05:43:08.913Z,7.30
2019-03-22T05:44:14.445Z,7.30
2019-03-22T05:45:19.832Z,7.30
2019-03-22T05:46:25.331Z,7.30
2019-03-22T05:47:30.807Z,7.40
2019-03-22T05:48:36.115Z,7.40
2019-03-22T05:49:41.609Z,7.40
2019-03-22T05:50:47.074Z,7.40
2019-03-22T05:51:52.472Z,7.40
2019-03-22T05:52:57.821Z,7.40
2019-03-22T05:54:03.248Z,7.40
2019-03-22T05:55:08.898Z,7.40
2019-03-22T05:56:14.289Z,7.40
2019-03-22T05:57:19.752Z,7.40
2019-03-22T05:58:25.192Z,7.40
2019-03-22T05:59:41.573Z,7.40
2019-03-22T06:00:37.926Z,7.40
2019-03-22T06:01:45.378Z,7.50
2019-03-22T06:02:50.489Z,7.50
2019-03-22T06:03:55.864Z,7.60
2019-03-22T06:05:01.311Z,7.60
2019-03-22T06:06:06.953Z,7.60
2019-03-22T06:07:12.814Z,7.60
2019-03-22T06:08:18.407Z,7.70
2019-03-22T06:09:23.926Z,7.70
2019-03-22T06:10:29.444Z,7.70
2019-03-22T06:11:35.051Z,7.70
2019-03-22T06:12:40.573Z,7.80
2019-03-22T06:13:45.980Z,7.80
2019-03-22T06:14:52.029Z,7.80
2019-03-22T06:15:57.624Z,7.80
2019-03-22T06:17:03.144Z,7.80
2019-03-22T06:18:08.621Z,7.90
2019-03-22T06:19:14.151Z,7.80
2019-03-22T06:20:19.716Z,7.80
2019-03-22T06:21:25.115Z,7.80
2019-03-22T06:22:30.752Z,7.90
2019-03-22T06:23:36.339Z,8.00
2019-03-22T06:24:41.870Z,8.00
2019-03-22T06:25:47.467Z,8.00
2019-03-22T06:26:53.865Z,7.90
2019-03-22T06:28:00.349Z,7.90
2019-03-22T06:29:06.090Z,7.90
2019-03-22T06:30:12.178Z,7.90
2019-03-22T06:31:17.776Z,7.90
2019-03-22T06:32:24.121Z,7.90
2019-03-22T06:33:29.515Z,7.90
2019-03-22T06:34:34.964Z,7.90
2019-03-22T06:35:40.344Z,7.90
2019-03-22T06:36:45.676Z,7.90
2019-03-22T06:37:50.964Z,7.90
2019-03-22T06:38:56.924Z,7.90
2019-03-22T06:40:02.381Z,7.80
2019-03-22T06:41:07.885Z,7.80
2019-03-22T06:42:13.368Z,7.80
2019-03-22T06:43:18.803Z,7.80
2019-03-22T06:44:24.336Z,7.80
2019-03-22T06:45:29.844Z,7.80
2019-03-22T06:46:35.289Z,7.90
2019-03-22T06:47:40.689Z,7.80
2019-03-22T06:48:46.133Z,7.80
2019-03-22T06:49:51.524Z,7.80
2019-03-22T06:50:58.308Z,7.80
2019-03-22T06:52:03.656Z,7.80
2019-03-22T06:53:09.052Z,7.70
2019-03-22T06:54:14.536Z,7.70
2019-03-22T06:55:20.008Z,7.70
2019-03-22T06:56:25.644Z,7.70
2019-03-22T06:57:31.169Z,7.70
2019-03-22T06:58:36.617Z,7.80
2019-03-22T06:59:42.050Z,7.80
2019-03-22T07:00:47.602Z,7.80
2019-03-22T07:01:53.160Z,7.90
2019-03-22T07:02:58.910Z,7.90
2019-03-22T07:04:04.790Z,7.90
2019-03-22T07:05:10.314Z,8.00
2019-03-22T07:06:16.010Z,8.10
2019-03-22T07:07:21.600Z,8.10
2019-03-22T07:08:27.088Z,8.20
2019-03-22T07:09:32.598Z,8.20
2019-03-22T07:10:38.366Z,8.10
2019-03-22T07:11:43.955Z,8.10
2019-03-22T07:12:49.497Z,8.00
2019-03-22T07:13:55.086Z,8.10
2019-03-22T07:15:00.720Z,8.10
2019-03-22T07:16:06.476Z,8.10
2019-03-22T07:17:12.103Z,8.20
2019-03-22T07:18:17.547Z,8.30
2019-03-22T07:19:22.869Z,8.40
2019-03-22T07:20:28.297Z,8.30
2019-03-22T07:21:35.118Z,8.30
2019-03-22T07:22:40.470Z,8.40
2019-03-22T07:23:45.933Z,8.50
2019-03-22T07:24:51.245Z,8.40
2019-03-22T07:25:56.634Z,8.30
2019-03-22T07:27:01.996Z,8.30
2019-03-22T07:28:07.296Z,8.20
2019-03-22T07:29:12.590Z,8.30
2019-03-22T07:30:19.299Z,8.30
2019-03-22T07:31:24.896Z,8.40
2019-03-22T07:32:30.170Z,8.50
2019-03-22T07:33:35.407Z,8.70
2019-03-22T07:34:40.667Z,8.80
2019-03-22T07:35:45.967Z,8.90
2019-03-22T07:36:51.244Z,8.90
2019-03-22T07:37:56.497Z,8.80
2019-03-22T07:39:01.840Z,8.80
2019-03-22T07:40:07.895Z,9.00
2019-03-22T07:41:13.204Z,9.10
2019-03-22T07:42:18.589Z,9.10
2019-03-22T07:43:23.950Z,9.10
2019-03-22T07:44:29.279Z,9.00
2019-03-22T07:45:34.547Z,9.00
2019-03-22T07:46:39.858Z,9.00
2019-03-22T07:47:45.106Z,9.00
2019-03-22T07:48:50.369Z,8.90
2019-03-22T07:49:55.817Z,8.90
2019-03-22T07:51:01.163Z,8.90
2019-03-22T07:52:06.588Z,8.90
2019-03-22T07:53:11.857Z,9.00
2019-03-22T07:54:17.137Z,8.90
2019-03-22T07:55:22.438Z,9.00
2019-03-22T07:56:27.752Z,9.00
2019-03-22T07:57:33.079Z,9.10
2019-03-22T07:58:38.362Z,9.10
2019-03-22T07:59:43.622Z,9.20
2019-03-22T08:00:48.933Z,9.30
2019-03-22T08:01:54.409Z,9.40
2019-03-22T08:02:59.683Z,9.60
2019-03-22T08:04:05.019Z,9.70
2019-03-22T08:05:10.336Z,9.70
2019-03-22T08:06:15.748Z,9.70
2019-03-22T08:07:22.226Z,9.80
2019-03-22T08:08:27.587Z,9.90
2019-03-22T08:09:33.069Z,9.90
2019-03-22T08:10:38.472Z,10.00
2019-03-22T08:11:43.909Z,10.00
2019-03-22T08:12:49.358Z,10.00
2019-03-22T08:13:54.940Z,9.90
2019-03-22T08:15:00.555Z,9.90
2019-03-22T08:16:09.001Z,9.90
2019-03-22T08:17:14.484Z,10.00
2019-03-22T08:18:19.973Z,10.00
2019-03-22T08:19:25.493Z,10.10
2019-03-22T08:20:31.312Z,10.20
2019-03-22T08:21:36.852Z,10.20
2019-03-22T08:22:43.714Z,10.10
2019-03-22T08:23:49.096Z,10.10
2019-03-22T08:24:54.593Z,9.80
2019-03-22T08:26:00.041Z,9.60
2019-03-22T08:27:05.779Z,9.60
2019-03-22T08:28:11.365Z,9.50
2019-03-22T08:29:16.947Z,9.50
2019-03-22T08:30:22.722Z,9.60
2019-03-22T08:31:28.283Z,9.60
2019-03-22T08:32:34.210Z,9.70
2019-03-22T08:33:39.997Z,9.80
2019-03-22T08:34:47.641Z,9.80
2019-03-22T08:35:53.397Z,9.80
2019-03-22T08:37:01.437Z,9.80
2019-03-22T08:38:07.946Z,9.70
2019-03-22T08:39:14.185Z,9.70
2019-03-22T08:40:20.981Z,9.70
2019-03-22T08:41:26.787Z,9.80
2019-03-22T08:42:34.240Z,9.80
2019-03-22T08:43:42.591Z,9.80
2019-03-22T08:44:48.040Z,9.80
2019-03-22T08:45:53.763Z,9.80
2019-03-22T08:46:59.571Z,9.80
2019-03-22T08:48:05.374Z,9.60
2019-03-22T08:49:11.187Z,9.50
2019-03-22T08:50:18.280Z,9.60
2019-03-22T08:51:23.695Z,9.50
2019-03-22T08:52:29.211Z,9.50
2019-03-22T08:53:34.819Z,9.50
2019-03-22T08:54:40.366Z,9.30
2019-03-22T08:55:48.000Z,9.20
2019-03-22T08:56:53.326Z,9.20
2019-03-22T08:57:58.892Z,9.20
2019-03-22T08:59:05.423Z,9.20
2019-03-22T09:00:11.686Z,9.10
2019-03-22T09:01:17.057Z,9.20
2019-03-22T09:02:22.524Z,9.30
2019-03-22T09:03:27.883Z,9.40
2019-03-22T09:04:33.178Z,9.50
2019-03-22T09:05:38.548Z,9.50
2019-03-22T09:06:43.973Z,9.50
2019-03-22T09:07:49.496Z,9.40
2019-03-22T09:08:54.867Z,9.30
2019-03-22T09:10:00.319Z,9.10
2019-03-22T09:11:05.852Z,9.00
2019-03-22T09:12:11.359Z,8.80
2019-03-22T09:13:16.817Z,8.70
2019-03-22T09:14:22.080Z,8.70
2019-03-22T09:15:40.256Z,8.60
2019-03-22T09:16:34.603Z,8.50
2019-03-22T09:17:40.241Z,8.40
2019-03-22T09:18:45.632Z,8.30
2019-03-22T09:19:51.256Z,8.40
2019-03-22T09:20:56.713Z,8.30
2019-03-22T09:22:02.030Z,8.40
2019-03-22T09:23:09.191Z,8.40
2019-03-22T09:24:14.624Z,8.40
2019-03-22T09:25:19.935Z,8.60
2019-03-22T09:26:27.828Z,8.70
2019-03-22T09:27:33.189Z,8.80
2019-03-22T09:28:38.513Z,8.90
2019-03-22T09:29:43.948Z,9.00
2019-03-22T09:30:49.277Z,8.90
2019-03-22T09:31:54.641Z,8.90
2019-03-22T09:33:00.021Z,9.00
2019-03-22T09:34:05.345Z,9.10
2019-03-22T09:35:10.801Z,9.20
2019-03-22T09:36:16.092Z,9.20
2019-03-22T09:37:21.649Z,9.20
2019-03-22T09:38:28.596Z,9.40
2019-03-22T09:39:34.170Z,9.40
2019-03-22T09:40:39.465Z,9.50
2019-03-22T09:41:44.809Z,9.70
2019-03-22T09:42:52.936Z,9.70
2019-03-22T09:43:57.194Z,10.00
2019-03-22T09:45:03.950Z,9.90
2019-03-22T09:46:09.540Z,10.10
2019-03-22T09:47:16.691Z,10.00
2019-03-22T09:48:22.430Z,10.00
2019-03-22T09:49:27.769Z,10.10
2019-03-22T09:50:33.703Z,10.30
2019-03-22T09:51:39.232Z,10.50
2019-03-22T09:52:44.719Z,10.40
2019-03-22T09:53:50.343Z,10.40
2019-03-22T09:54:56.350Z,10.50
2019-03-22T09:56:02.012Z,10.70
2019-03-22T09:57:08.237Z,10.70
2019-03-22T09:58:14.383Z,10.90
2019-03-22T09:59:20.463Z,11.10
2019-03-22T10:00:36.495Z,11.30
2019-03-22T10:01:42.083Z,11.40
2019-03-22T10:02:47.595Z,11.30
2019-03-22T10:03:53.621Z,11.20
2019-03-22T10:05:00.685Z,11.20
2019-03-22T10:06:07.567Z,11.20
2019-03-22T10:07:13.373Z,11.00
2019-03-22T10:08:19.573Z,11.00
2019-03-22T10:09:25.327Z,11.10
2019-03-22T10:10:30.990Z,11.10
2019-03-22T10:11:36.384Z,11.00
2019-03-22T10:12:45.020Z,11.00
2019-03-22T10:13:50.530Z,11.10
2019-03-22T10:14:56.215Z,11.20
2019-03-22T10:16:03.319Z,11.10
2019-03-22T10:17:09.204Z,11.00
2019-03-22T10:18:14.963Z,10.80
2019-03-22T10:19:20.716Z,10.70
2019-03-22T10:20:26.457Z,10.70
2019-03-22T10:21:32.116Z,10.80
2019-03-22T10:22:37.784Z,10.60
2019-03-22T10:23:43.678Z,10.60
2019-03-22T10:24:49.288Z,10.50
2019-03-22T10:25:55.226Z,10.30
2019-03-22T10:27:05.315Z,10.40
2019-03-22T10:28:11.100Z,10.60
2019-03-22T10:29:19.263Z,10.70
2019-03-22T10:30:24.708Z,10.60
2019-03-22T10:31:37.152Z,10.60
2019-03-22T10:32:37.476Z,10.60
2019-03-22T10:33:42.949Z,10.80
2019-03-22T10:34:48.478Z,11.00
2019-03-22T10:35:54.807Z,10.80
2019-03-22T10:37:00.868Z,10.70
2019-03-22T10:38:16.011Z,10.60
2019-03-22T10:39:14.974Z,10.50
2019-03-22T10:40:20.709Z,10.70
2019-03-22T10:41:26.356Z,10.70
2019-03-22T10:42:31.831Z,10.70
2019-03-22T10:43:38.494Z,10.50
2019-03-22T10:44:44.115Z,10.50
2019-03-22T10:45:49.844Z,10.30
2019-03-22T10:46:55.451Z,10.20
2019-03-22T10:48:01.100Z,10.10
2019-03-22T10:49:06.728Z,10.10
2019-03-22T10:50:12.425Z,10.10
2019-03-22T10:51:20.238Z,10.20
2019-03-22T10:52:25.087Z,10.20
2019-03-22T10:53:31.138Z,10.00
2019-03-22T10:54:36.902Z,9.90
2019-03-22T10:55:43.410Z,9.90
2019-03-22T10:56:49.169Z,9.90
2019-03-22T10:57:55.617Z,9.90
2019-03-22T10:59:02.762Z,9.90
2019-03-22T11:00:11.003Z,9.90
2019-03-22T11:01:16.681Z,10.00
2019-03-22T11:02:22.378Z,9.90
2019-03-22T11:03:28.874Z,10.00
2019-03-22T11:04:34.377Z,10.40
2019-03-22T11:05:43.029Z,10.80
2019-03-22T11:06:49.910Z,11.10
2019-03-22T11:07:55.585Z,11.30
2019-03-22T11:09:01.260Z,11.40
2019-03-22T11:10:11.195Z,11.10
2019-03-22T11:11:16.904Z,11.10
2019-03-22T11:12:22.668Z,10.90
2019-03-22T11:13:28.499Z,11.00
2019-03-22T11:14:34.152Z,11.10
2019-03-22T11:15:48.154Z,11.30
2019-03-22T11:16:47.417Z,11.40
2019-03-22T11:17:53.011Z,11.60
2019-03-22T11:19:00.529Z,11.80
2019-03-22T11:20:07.970Z,11.90
2019-03-22T11:21:13.449Z,12.20
2019-03-22T11:22:18.845Z,12.60
2019-03-22T11:23:24.218Z,12.80
2019-03-22T11:24:29.807Z,13.00
2019-03-22T11:25:35.405Z,13.10
2019-03-22T11:26:40.743Z,13.60
2019-03-22T11:27:46.247Z,14.00
2019-03-22T11:28:51.617Z,14.50
2019-03-22T11:29:57.132Z,15.10
2019-03-22T11:31:04.933Z,15.90
2019-03-22T11:32:12.914Z,16.30
2019-03-22T11:33:16.893Z,16.90
2019-03-22T11:34:22.426Z,17.40
2019-03-22T11:35:27.885Z,18.00
2019-03-22T11:36:33.338Z,18.40
2019-03-22T11:37:38.894Z,18.80
2019-03-22T11:38:44.413Z,18.90
2019-03-22T11:39:49.765Z,19.20
2019-03-22T11:40:55.365Z,19.80
2019-03-22T11:42:01.775Z,20.10
2019-03-22T11:43:08.810Z,20.80
2019-03-22T11:44:14.525Z,21.10
2019-03-22T11:45:21.295Z,21.20
2019-03-22T11:46:28.811Z,21.50
2019-03-22T11:47:34.376Z,21.70
2019-03-22T11:48:39.863Z,21.30
2019-03-22T11:49:45.536Z,21.60
2019-03-22T11:50:51.108Z,21.10
2019-03-22T11:51:56.685Z,20.90
2019-03-22T11:53:02.144Z,21.80
2019-03-22T11:54:07.692Z,21.60
2019-03-22T11:55:14.249Z,21.20
2019-03-22T11:56:19.706Z,21.40
2019-03-22T11:57:25.355Z,21.80
2019-03-22T11:58:30.924Z,22.90
2019-03-22T11:59:36.450Z,23.50
2019-03-22T12:00:41.917Z,23.30
2019-03-22T12:01:47.421Z,22.70
2019-03-22T12:02:52.965Z,23.10
2019-03-22T12:03:58.338Z,23.80
2019-03-22T12:05:04.125Z,23.80
2019-03-22T12:06:09.687Z,24.40
2019-03-22T12:07:15.159Z,24.60
2019-03-22T12:08:20.701Z,24.30
2019-03-22T12:09:26.350Z,24.80
2019-03-22T12:10:31.861Z,24.20
2019-03-22T12:11:37.364Z,23.90
2019-03-22T12:12:43.000Z,25.00
2019-03-22T12:13:48.600Z,26.00
2019-03-22T12:14:54.156Z,25.10
2019-03-22T12:15:59.645Z,25.50
2019-03-22T12:17:05.003Z,25.20
2019-03-22T12:18:10.508Z,25.00
2019-03-22T12:19:16.016Z,25.20
2019-03-22T12:20:22.244Z,24.80
2019-03-22T12:21:27.728Z,25.90
2019-03-22T12:22:33.240Z,26.10
2019-03-22T12:23:38.468Z,27.10
2019-03-22T12:24:43.795Z,28.30
2019-03-22T12:25:49.135Z,28.80
2019-03-22T12:26:54.420Z,29.10
2019-03-22T12:27:59.807Z,28.70
2019-03-22T12:29:05.633Z,28.90
2019-03-22T12:30:15.416Z,28.70
2019-03-22T12:31:20.966Z,27.70
2019-03-22T12:32:32.179Z,26.10
2019-03-22T12:33:33.666Z,25.80
2019-03-22T12:34:39.021Z,25.00
2019-03-22T12:35:44.390Z,24.40
2019-03-22T12:36:49.694Z,23.60
2019-03-22T12:37:54.969Z,23.10
2019-03-22T12:39:00.257Z,23.30
2019-03-22T12:40:06.361Z,22.90
2019-03-22T12:41:11.667Z,23.30
2019-03-22T12:42:16.938Z,22.70
2019-03-22T12:43:22.272Z,21.70
2019-03-22T12:44:27.621Z,20.50
2019-03-22T12:45:33.229Z,20.30
2019-03-22T12:46:38.492Z,19.70
2019-03-22T12:47:45.242Z,19.50
2019-03-22T12:48:50.516Z,19.00
2019-03-22T12:49:55.764Z,19.20
2019-03-22T12:51:01.149Z,19.30
2019-03-22T12:52:06.438Z,19.60
2019-03-22T12:53:11.903Z,19.50
2019-03-22T12:54:17.157Z,19.80
2019-03-22T12:55:22.699Z,20.20
2019-03-22T12:56:28.001Z,21.50
2019-03-22T12:57:33.309Z,21.90
2019-03-22T12:58:38.623Z,22.30
2019-03-22T12:59:43.911Z,23.00
2019-03-22T13:00:49.154Z,22.90
2019-03-22T13:01:54.449Z,24.00
2019-03-22T13:02:59.714Z,24.40
2019-03-22T13:04:05.027Z,25.20
2019-03-22T13:05:10.922Z,25.00
2019-03-22T13:06:16.242Z,25.70
2019-03-22T13:07:21.505Z,26.60
2019-03-22T13:08:26.759Z,26.80
2019-03-22T13:09:31.997Z,26.90
2019-03-22T13:10:37.300Z,26.80
2019-03-22T13:11:45.538Z,26.40
2019-03-22T13:12:51.492Z,26.10
2019-03-22T13:13:57.081Z,26.20
2019-03-22T13:15:02.584Z,26.00
2019-03-22T13:16:08.206Z,26.30
2019-03-22T13:17:13.777Z,25.60
2019-03-22T13:18:19.483Z,24.40
2019-03-22T13:19:24.957Z,23.60
2019-03-22T13:20:30.561Z,23.30
2019-03-22T13:21:36.227Z,22.90
2019-03-22T13:22:41.760Z,23.00
2019-03-22T13:23:47.317Z,23.10
2019-03-22T13:24:52.670Z,23.10
2019-03-22T13:25:58.047Z,22.90
2019-03-22T13:27:03.468Z,22.00
2019-03-22T13:28:08.809Z,21.90
2019-03-22T13:29:14.180Z,21.60
2019-03-22T13:30:44.349Z,21.90
2019-03-22T13:31:49.657Z,22.10
2019-03-22T13:32:55.204Z,21.80
2019-03-22T13:34:00.551Z,21.30
2019-03-22T13:35:06.651Z,21.80
2019-03-22T13:36:11.998Z,22.40
2019-03-22T13:37:17.439Z,22.30
2019-03-22T13:38:22.928Z,22.40
2019-03-22T13:39:28.145Z,21.90
2019-03-22T13:40:33.669Z,21.90
2019-03-22T13:41:39.018Z,22.30
2019-03-22T13:42:44.560Z,22.10
2019-03-22T13:43:49.778Z,22.80
2019-03-22T13:44:55.027Z,22.70
2019-03-22T13:46:00.484Z,22.90
2019-03-22T13:47:06.093Z,22.50
2019-03-22T13:48:11.579Z,22.60
2019-03-22T13:49:17.007Z,23.30
2019-03-22T13:50:22.515Z,23.00
2019-03-22T13:51:27.837Z,23.40
2019-03-22T13:52:33.229Z,23.00
2019-03-22T13:53:38.498Z,22.60
2019-03-22T13:54:43.843Z,22.20
2019-03-22T13:55:49.054Z,21.30
2019-03-22T13:56:57.109Z,20.90
2019-03-22T13:58:02.438Z,20.40
2019-03-22T13:59:07.822Z,19.70
2019-03-22T14:00:13.562Z,18.80
2019-03-22T14:01:18.845Z,18.00
2019-03-22T14:02:24.468Z,17.10
2019-03-22T14:03:29.939Z,16.50
2019-03-22T14:04:35.526Z,15.90
2019-03-22T14:05:41.296Z,15.40
2019-03-22T14:06:46.929Z,15.20
2019-03-22T14:07:52.454Z,15.10
2019-03-22T14:08:58.448Z,15.30
2019-03-22T14:10:04.255Z,15.20
2019-03-22T14:11:09.988Z,15.40
2019-03-22T14:12:15.893Z,15.60
2019-03-22T14:13:22.684Z,15.90
2019-03-22T14:14:28.346Z,15.90
2019-03-22T14:15:33.998Z,15.80
2019-03-22T14:16:40.058Z,15.70
2019-03-22T14:17:45.967Z,15.40
2019-03-22T14:18:51.706Z,14.80
2019-03-22T14:19:57.473Z,14.40
2019-03-22T14:21:03.219Z,13.90
2019-03-22T14:22:08.908Z,13.80
2019-03-22T14:23:14.658Z,13.80
2019-03-22T14:24:20.457Z,13.70
2019-03-22T14:25:26.367Z,13.80
2019-03-22T14:26:32.026Z,13.90
2019-03-22T14:27:37.796Z,14.10